createdAt,value
2018-12-06T00:03:58.391Z,21.8
2018-12-06T00:13:57.598Z,21.8
2018-12-06T00:23:56.813Z,21.8
2018-12-06T00:33:56.074Z,21.8
2018-12-06T00:43:55.232Z,21.8
2018-12-06T00:53:54.444Z,21.8
2018-12-06T01:03:53.656Z,21.8
2018-12-06T01:13:52.853Z,21.7
2018-12-06T01:23:52.073Z,21.7
2018-12-06T01:33:51.290Z,21.7
2018-12-06T01:43:50.475Z,21.6
2018-12-06T01:53:49.679Z,21.6
2018-12-06T02:03:48.894Z,21.6
2018-12-06T02:13:48.097Z,21.6
2018-12-06T02:23:47.303Z,21.6
2018-12-06T02:33:46.507Z,21.6
2018-12-06T02:43:45.759Z,21.6
2018-12-06T02:53:44.916Z,21.6
2018-12-06T03:03:44.123Z,21.5
2018-12-06T03:13:43.330Z,21.5
2018-12-06T03:23:42.525Z,21.5
2018-12-06T03:33:41.738Z,21.5
2018-12-06T03:43:40.939Z,21.6
2018-12-06T03:53:40.149Z,21.8
2018-12-06T04:03:39.357Z,22.1
2018-12-06T04:13:38.566Z,22.1
2018-12-06T04:23:37.769Z,22.1
2018-12-06T04:33:36.989Z,22.2
2018-12-06T04:43:36.188Z,22.3
2018-12-06T04:53:35.402Z,22.3
2018-12-06T05:03:34.607Z,22.3
2018-12-06T05:13:33.821Z,22.3
2018-12-06T05:23:33.037Z,22.4
2018-12-06T05:33:32.253Z,22.3
2018-12-06T05:43:31.449Z,22.3
2018-12-06T05:53:30.665Z,22.4
2018-12-06T06:03:29.875Z,22.6
2018-12-06T06:13:29.082Z,22.6
2018-12-06T06:23:28.289Z,22.6
2018-12-06T06:33:27.496Z,22.5
2018-12-06T06:43:26.695Z,22.4
2018-12-06T06:53:25.909Z,22.5
2018-12-06T07:03:25.111Z,22.6
2018-12-06T07:13:24.311Z,22.8
2018-12-06T07:23:23.520Z,22.8
2018-12-06T07:33:22.726Z,22.9
2018-12-06T07:43:22.964Z,22.9
2018-12-06T07:53:21.134Z,22.9
2018-12-06T08:03:20.340Z,23
2018-12-06T08:13:19.536Z,23.1
2018-12-06T08:23:18.746Z,22.8
2018-12-06T08:33:17.947Z,22.7
2018-12-06T08:43:17.153Z,22.6
2018-12-06T08:53:16.350Z,22.4
2018-12-06T09:03:15.556Z,22.3
2018-12-06T09:13:14.759Z,22.2
2018-12-06T09:23:13.969Z,22.1
2018-12-06T09:33:13.164Z,22.3
2018-12-06T09:43:12.376Z,22.4
2018-12-06T09:53:11.580Z,22.6
2018-12-06T10:03:10.777Z,22.8
2018-12-06T10:13:09.986Z,22.9
2018-12-06T10:23:09.183Z,22.9
2018-12-06T10:33:08.393Z,22.7
2018-12-06T10:43:07.593Z,22.7
2018-12-06T10:53:06.797Z,22.6
2018-12-06T11:03:05.997Z,22.6
2018-12-06T11:13:05.279Z,22.6
2018-12-06T11:23:04.405Z,22.8
2018-12-06T11:33:03.608Z,22.8
2018-12-06T11:43:02.817Z,22.6
2018-12-06T11:53:02.014Z,22.6
2018-12-06T12:03:01.219Z,22.8
2018-12-06T12:13:00.420Z,22.6
2018-12-06T12:22:59.617Z,22.6
2018-12-06T12:32:58.829Z,22.8
2018-12-06T12:42:58.029Z,22.9
2018-12-06T12:52:57.230Z,22.9
2018-12-06T13:02:56.431Z,22.8
2018-12-06T13:12:55.642Z,22.7
2018-12-06T13:22:54.835Z,22.8
2018-12-06T13:32:54.042Z,22.9
2018-12-06T13:42:53.240Z,22.9
2018-12-06T13:52:52.448Z,22.6
2018-12-06T14:02:51.655Z,22.6
2018-12-06T14:12:50.861Z,22.6
2018-12-06T14:22:50.056Z,22.4
2018-12-06T14:32:49.267Z,22.4
2018-12-06T14:42:48.463Z,22.3
2018-12-06T14:52:47.666Z,22.2
2018-12-06T15:02:46.878Z,22.2
2018-12-06T15:12:46.088Z,22.2
2018-12-06T15:22:45.284Z,22.2
2018-12-06T15:32:44.491Z,22.4
2018-12-06T15:42:43.696Z,22.3
2018-12-06T15:52:42.898Z,22.3
2018-12-06T16:02:42.106Z,22.4
2018-12-06T16:12:41.313Z,22.4
2018-12-06T16:22:40.510Z,22.5
2018-12-06T16:32:39.722Z,22.6
2018-12-06T16:42:38.923Z,22.6
2018-12-06T16:52:38.131Z,22.8
2018-12-06T17:02:37.334Z,22.8
2018-12-06T17:12:36.536Z,22.6
2018-12-06T17:22:35.755Z,22.7
2018-12-06T17:32:34.958Z,22.7
2018-12-06T17:42:34.161Z,22.6
2018-12-06T17:52:33.367Z,22.4
2018-12-06T18:02:32.573Z,22.4
2018-12-06T18:12:31.781Z,22.6
2018-12-06T18:22:30.981Z,22.8
2018-12-06T18:32:30.188Z,22.9
2018-12-06T18:42:29.395Z,23
2018-12-06T18:52:28.600Z,22.9
2018-12-06T19:02:27.799Z,22.7
2018-12-06T19:12:27.010Z,22.5
2018-12-06T19:22:26.210Z,22.4
2018-12-06T19:32:25.411Z,22.3
2018-12-06T19:42:24.618Z,22.3
2018-12-06T19:52:23.817Z,22.4
2018-12-06T20:02:23.019Z,22.5
2018-12-06T20:12:22.232Z,22.6
2018-12-06T20:22:21.497Z,22.5
2018-12-06T20:32:20.645Z,22.4
2018-12-06T20:42:19.857Z,22.4
2018-12-06T20:52:19.069Z,22.4
2018-12-06T21:02:18.312Z,22.3
2018-12-06T21:12:17.493Z,22.3
2018-12-06T21:22:16.692Z,22.1
2018-12-06T21:32:15.896Z,22.1
2018-12-06T21:42:15.108Z,22.1
2018-12-06T21:52:14.312Z,22
2018-12-06T22:02:13.532Z,21.9
2018-12-06T22:12:12.723Z,21.9
2018-12-06T22:22:11.926Z,21.9
2018-12-06T22:32:11.128Z,21.9
2018-12-06T22:42:10.335Z,21.8
2018-12-06T22:52:09.544Z,21.8
2018-12-06T23:02:08.757Z,21.8
2018-12-06T23:12:07.947Z,21.8
2018-12-06T23:22:07.154Z,21.8
2018-12-06T23:32:06.359Z,21.8
2018-12-06T23:42:05.560Z,21.8
2018-12-06T23:52:04.763Z,21.7
